ANA856 WIII-RJTT
Flight info
| Callsign | ANA856 |
|---|---|
| Flight time | N/A |
| Altitude | 37000 |
| Route | AMBOY P648 BUKTU M772 ANIPU/N0495F380 M772 ANIRU/N0492F390 M772 LAXOR N884 LULBU M754 AKOTA L625 AVMUP/N0488F400 L625 MEVIN/N0491F390 B462 KAZIK Y59 AZAMA Y57 SUKBO Y571 BILLY Y21 AKSEL |
| Aircraft | B789/H-SDE1E2E3FGHIJ2J3J4J5M1RWXY/LB1D1 |
Departure
| Time | 2026-05-04 01:28 |
|---|---|
| Airport | Soekarno-Hatta International Airport (WIII) |
Arrival
| Time | N/A |
|---|---|
| Airport | Tokyo Haneda International Airport (RJTT) |
| Time | Latitude | Longitude | Altitude | Speed | Heading |
|---|---|---|---|---|---|
| 2026-05-04 01:14 | -6.11839 | 106.66232 | 43 ft | 0 kts | 158° |
| 2026-05-04 01:15 | -6.11817 | 106.66223 | 41 ft | 4 kts | 158° |
| 2026-05-04 01:15 | -6.11792 | 106.66213 | 39 ft | 4 kts | 158° |
| 2026-05-04 01:16 | -6.11771 | 106.66205 | 41 ft | 4 kts | 154° |
| 2026-05-04 01:16 | -6.11757 | 106.66194 | 39 ft | 4 kts | 107° |
| 2026-05-04 01:16 | -6.11758 | 106.66176 | 37 ft | 3 kts | 68° |
| 2026-05-04 01:16 | -6.11767 | 106.66153 | 38 ft | 2 kts | 68° |
| 2026-05-04 01:17 | -6.11767 | 106.66151 | 39 ft | 0 kts | 68° |
| 2026-05-04 01:21 | -6.11767 | 106.66152 | 39 ft | 1 kts | 68° |
| 2026-05-04 01:21 | -6.11759 | 106.66172 | 39 ft | 5 kts | 68° |
| 2026-05-04 01:21 | -6.11743 | 106.66215 | 43 ft | 9 kts | 68° |
| 2026-05-04 01:22 | -6.11715 | 106.66284 | 43 ft | 12 kts | 68° |
| 2026-05-04 01:22 | -6.11680 | 106.66374 | 43 ft | 15 kts | 68° |
| 2026-05-04 01:22 | -6.11652 | 106.66408 | 43 ft | 1 kts | 5° |
| 2026-05-04 01:22 | -6.11636 | 106.66406 | 43 ft | 4 kts | 352° |
| 2026-05-04 01:23 | -6.11594 | 106.66392 | 43 ft | 9 kts | 339° |
| 2026-05-04 01:23 | -6.11516 | 106.66362 | 43 ft | 15 kts | 339° |
| 2026-05-04 01:23 | -6.11404 | 106.66318 | 44 ft | 20 kts | 338° |
| 2026-05-04 01:23 | -6.11320 | 106.66329 | 44 ft | 7 kts | 48° |
| 2026-05-04 01:24 | -6.11306 | 106.66366 | 44 ft | 8 kts | 69° |
| 2026-05-04 01:24 | -6.11278 | 106.66435 | 44 ft | 14 kts | 68° |
| 2026-05-04 01:24 | -6.11237 | 106.66541 | 44 ft | 19 kts | 68° |
| 2026-05-04 01:24 | -6.11181 | 106.66682 | 44 ft | 24 kts | 68° |
| 2026-05-04 01:25 | -6.11137 | 106.66792 | 44 ft | 26 kts | 68° |
| 2026-05-04 01:25 | -6.11013 | 106.66979 | 44 ft | 20 kts | 3° |
| 2026-05-04 01:25 | -6.10941 | 106.66917 | 44 ft | 9 kts | 281° |
| 2026-05-04 01:25 | -6.10930 | 106.66850 | 43 ft | 10 kts | 277° |
| 2026-05-04 01:26 | -6.10941 | 106.66797 | 43 ft | 7 kts | 250° |
| 2026-05-04 01:26 | -6.10954 | 106.66761 | 44 ft | 0 kts | 249° |
| 2026-05-04 01:26 | -6.10954 | 106.66760 | 44 ft | 0 kts | 249° |
| 2026-05-04 01:26 | -6.10955 | 106.66757 | 44 ft | 0 kts | 248° |
| 2026-05-04 01:27 | -6.10956 | 106.66755 | 44 ft | 1 kts | 248° |
| 2026-05-04 01:27 | -6.11019 | 106.66598 | 45 ft | 63 kts | 248° |
| 2026-05-04 01:27 | -6.11288 | 106.65927 | 46 ft | 142 kts | 248° |
| 2026-05-04 01:27 | -6.11744 | 106.64793 | 102 ft | 202 kts | 250° |
| 2026-05-04 01:28 | -6.12179 | 106.63494 | 1086 ft | 192 kts | 251° |
| 2026-05-04 01:28 | -6.12523 | 106.62155 | 1895 ft | 211 kts | 264° |
| 2026-05-04 01:28 | -6.12117 | 106.60657 | 2326 ft | 241 kts | 298° |
| 2026-05-04 01:28 | -6.11293 | 106.59073 | 2873 ft | 269 kts | 294° |
| 2026-05-04 01:29 | -6.10654 | 106.57296 | 4002 ft | 271 kts | 287° |
| 2026-05-04 01:29 | -6.10139 | 106.55457 | 5112 ft | 277 kts | 285° |
| 2026-05-04 01:29 | -6.09590 | 106.53589 | 6227 ft | 281 kts | 287° |
| 2026-05-04 01:29 | -6.08829 | 106.51772 | 7168 ft | 286 kts | 309° |
| 2026-05-04 01:30 | -6.07333 | 106.50461 | 8147 ft | 289 kts | 335° |
| 2026-05-04 01:30 | -6.05375 | 106.49950 | 8894 ft | 300 kts | 1° |
| 2026-05-04 01:30 | -6.03335 | 106.50392 | 9019 ft | 302 kts | 24° |
| 2026-05-04 01:30 | -6.01645 | 106.51559 | 9023 ft | 293 kts | 51° |
| 2026-05-04 01:31 | -6.00628 | 106.53308 | 9011 ft | 291 kts | 73° |
| 2026-05-04 01:31 | -6.00258 | 106.55299 | 9009 ft | 290 kts | 83° |
| 2026-05-04 01:31 | -6.00021 | 106.57305 | 9018 ft | 289 kts | 84° |
| 2026-05-04 01:31 | -5.99856 | 106.58634 | 9005 ft | 289 kts | 83° |
| 2026-05-04 01:32 | -5.99476 | 106.61306 | 9002 ft | 289 kts | 82° |
| 2026-05-04 01:32 | -5.99285 | 106.62627 | 9008 ft | 289 kts | 82° |
| 2026-05-04 01:32 | -5.99004 | 106.64621 | 9008 ft | 288 kts | 83° |
| 2026-05-04 01:32 | -5.98728 | 106.66619 | 9013 ft | 289 kts | 83° |
| 2026-05-04 01:33 | -5.98359 | 106.69262 | 9006 ft | 288 kts | 82° |
| 2026-05-04 01:33 | -5.98079 | 106.71256 | 9013 ft | 288 kts | 82° |
| 2026-05-04 01:33 | -5.97891 | 106.72600 | 9014 ft | 288 kts | 82° |
| 2026-05-04 01:33 | -5.97612 | 106.74595 | 9013 ft | 288 kts | 83° |
| 2026-05-04 01:34 | -5.97333 | 106.76588 | 9010 ft | 288 kts | 83° |
| 2026-05-04 01:34 | -5.97054 | 106.78581 | 9018 ft | 288 kts | 82° |
| 2026-05-04 01:34 | -5.96777 | 106.80551 | 9008 ft | 288 kts | 83° |
| 2026-05-04 01:34 | -5.96499 | 106.82541 | 9008 ft | 288 kts | 83° |
| 2026-05-04 01:35 | -5.96131 | 106.84517 | 9024 ft | 291 kts | 73° |
| 2026-05-04 01:35 | -5.95619 | 106.86475 | 10001 ft | 287 kts | 78° |
| 2026-05-04 01:35 | -5.95181 | 106.88488 | 10615 ft | 307 kts | 78° |
| 2026-05-04 01:35 | -5.94667 | 106.90668 | 10961 ft | 334 kts | 77° |
| 2026-05-04 01:36 | -5.94080 | 106.93023 | 11253 ft | 360 kts | 76° |
| 2026-05-04 01:36 | -5.93470 | 106.95497 | 11887 ft | 371 kts | 77° |
| 2026-05-04 01:36 | -5.92706 | 106.97991 | 12028 ft | 376 kts | 64° |
| 2026-05-04 01:36 | -5.91205 | 107.00113 | 12036 ft | 373 kts | 45° |
| 2026-05-04 01:37 | -5.89115 | 107.01641 | 12799 ft | 372 kts | 28° |
| 2026-05-04 01:37 | -5.86702 | 107.02636 | 13706 ft | 378 kts | 21° |
| 2026-05-04 01:37 | -5.84218 | 107.03556 | 14504 ft | 382 kts | 21° |
| 2026-05-04 01:37 | -5.81703 | 107.04473 | 15306 ft | 387 kts | 21° |
| 2026-05-04 01:38 | -5.79161 | 107.05417 | 16100 ft | 392 kts | 22° |
| 2026-05-04 01:38 | -5.76626 | 107.06368 | 16813 ft | 398 kts | 21° |
| 2026-05-04 01:38 | -5.73985 | 107.07354 | 17012 ft | 409 kts | 21° |
| 2026-05-04 01:38 | -5.71334 | 107.08337 | 17014 ft | 403 kts | 22° |
| 2026-05-04 01:39 | -5.68883 | 107.09640 | 17022 ft | 398 kts | 37° |
| 2026-05-04 01:39 | -5.66849 | 107.11524 | 17050 ft | 398 kts | 52° |
| 2026-05-04 01:39 | -5.65381 | 107.13864 | 17784 ft | 395 kts | 66° |
| 2026-05-04 01:39 | -5.64415 | 107.16463 | 18435 ft | 400 kts | 71° |
| 2026-05-04 01:40 | -5.63500 | 107.19117 | 19066 ft | 404 kts | 72° |
| 2026-05-04 01:40 | -5.62601 | 107.21802 | 19699 ft | 408 kts | 72° |
| 2026-05-04 01:40 | -5.61693 | 107.24518 | 20309 ft | 412 kts | 72° |
| 2026-05-04 01:40 | -5.60766 | 107.27253 | 20914 ft | 416 kts | 71° |
| 2026-05-04 01:41 | -5.59826 | 107.30014 | 21511 ft | 420 kts | 72° |
| 2026-05-04 01:41 | -5.58895 | 107.32770 | 22087 ft | 424 kts | 72° |
| 2026-05-04 01:41 | -5.57944 | 107.35589 | 22648 ft | 428 kts | 72° |
| 2026-05-04 01:41 | -5.56983 | 107.38432 | 23193 ft | 432 kts | 72° |
| 2026-05-04 01:42 | -5.56012 | 107.41296 | 23697 ft | 435 kts | 72° |
| 2026-05-04 01:42 | -5.55034 | 107.44187 | 24159 ft | 438 kts | 72° |
| 2026-05-04 01:42 | -5.54052 | 107.47089 | 24621 ft | 441 kts | 71° |
| 2026-05-04 01:42 | -5.53062 | 107.50014 | 25074 ft | 443 kts | 71° |
| 2026-05-04 01:43 | -5.52067 | 107.52953 | 25520 ft | 446 kts | 71° |
| 2026-05-04 01:43 | -5.51065 | 107.55912 | 25953 ft | 449 kts | 71° |
| 2026-05-04 01:43 | -5.50056 | 107.58888 | 26375 ft | 452 kts | 71° |
| 2026-05-04 01:43 | -5.49042 | 107.61883 | 26806 ft | 454 kts | 71° |
| 2026-05-04 01:44 | -5.48020 | 107.64898 | 27222 ft | 457 kts | 71° |
| 2026-05-04 01:44 | -5.46993 | 107.67929 | 27647 ft | 459 kts | 71° |
| 2026-05-04 01:44 | -5.45954 | 107.70975 | 28039 ft | 462 kts | 69° |
| 2026-05-04 01:44 | -5.44549 | 107.73877 | 28414 ft | 465 kts | 58° |
| 2026-05-04 01:45 | -5.42600 | 107.76480 | 28797 ft | 468 kts | 47° |
| 2026-05-04 01:45 | -5.40210 | 107.78650 | 29167 ft | 471 kts | 36° |
| 2026-05-04 01:45 | -5.34270 | 107.81506 | 29864 ft | 480 kts | 18° |
| 2026-05-04 01:46 | -5.31055 | 107.82461 | 30137 ft | 483 kts | 18° |
| 2026-05-04 01:46 | -5.27814 | 107.83397 | 30428 ft | 486 kts | 17° |
| 2026-05-04 01:46 | -5.24559 | 107.84329 | 30720 ft | 488 kts | 17° |
| 2026-05-04 01:46 | -5.21288 | 107.85283 | 30985 ft | 490 kts | 17° |
| 2026-05-04 01:47 | -5.18002 | 107.86248 | 31230 ft | 493 kts | 17° |
| 2026-05-04 01:47 | -5.14702 | 107.87208 | 31488 ft | 495 kts | 17° |
| 2026-05-04 01:47 | -5.11379 | 107.88170 | 31740 ft | 498 kts | 17° |
| 2026-05-04 01:47 | -5.08045 | 107.89138 | 31998 ft | 500 kts | 17° |
| 2026-05-04 01:48 | -5.04745 | 107.90100 | 32226 ft | 502 kts | 17° |
| 2026-05-04 01:48 | -5.01382 | 107.91079 | 32463 ft | 504 kts | 17° |
| 2026-05-04 01:48 | -4.98012 | 107.92057 | 32701 ft | 506 kts | 17° |
| 2026-05-04 01:48 | -4.94625 | 107.93041 | 33028 ft | 505 kts | 17° |
| 2026-05-04 01:49 | -4.91253 | 107.94022 | 33373 ft | 505 kts | 17° |
| 2026-05-04 01:49 | -4.87881 | 107.95003 | 33708 ft | 504 kts | 17° |
| 2026-05-04 01:49 | -4.84511 | 107.95982 | 34032 ft | 504 kts | 17° |
| 2026-05-04 01:49 | -4.81147 | 107.96959 | 34341 ft | 503 kts | 17° |
| 2026-05-04 01:50 | -4.77790 | 107.97936 | 34642 ft | 502 kts | 17° |
| 2026-05-04 01:50 | -4.74442 | 107.98910 | 34960 ft | 501 kts | 17° |
| 2026-05-04 01:50 | -4.71092 | 107.99884 | 35256 ft | 500 kts | 17° |
| 2026-05-04 01:50 | -4.67752 | 108.00855 | 35580 ft | 499 kts | 17° |
| 2026-05-04 01:51 | -4.64421 | 108.01823 | 35878 ft | 498 kts | 17° |
| 2026-05-04 01:51 | -4.61089 | 108.02792 | 36187 ft | 497 kts | 17° |
| 2026-05-04 01:51 | -4.57768 | 108.03758 | 36491 ft | 496 kts | 17° |
| 2026-05-04 01:51 | -4.54454 | 108.04721 | 36801 ft | 495 kts | 17° |
| 2026-05-04 01:52 | -4.51188 | 108.05670 | 37029 ft | 496 kts | 17° |
| 2026-05-04 01:52 | -4.47855 | 108.06639 | 37021 ft | 500 kts | 17° |
| 2026-05-04 01:52 | -4.41216 | 108.08567 | 37015 ft | 494 kts | 17° |
| 2026-05-04 01:53 | -4.34621 | 108.10484 | 37019 ft | 493 kts | 17° |
| 2026-05-04 01:53 | -4.28030 | 108.12398 | 37018 ft | 493 kts | 17° |
| 2026-05-04 01:54 | -4.21430 | 108.14315 | 37018 ft | 494 kts | 17° |
| 2026-05-04 01:54 | -4.14860 | 108.16325 | 37036 ft | 492 kts | 26° |
| 2026-05-04 01:55 | -4.09101 | 108.19962 | 37040 ft | 491 kts | 38° |
| 2026-05-04 01:55 | -4.03739 | 108.24184 | 37038 ft | 490 kts | 39° |
| 2026-05-04 01:56 | -3.98405 | 108.28352 | 37037 ft | 489 kts | 39° |
| 2026-05-04 01:56 | -3.93057 | 108.32538 | 37038 ft | 488 kts | 39° |
| 2026-05-04 01:57 | -3.87704 | 108.36729 | 36979 ft | 489 kts | 39° |
| 2026-05-04 01:57 | -3.82341 | 108.40922 | 36946 ft | 488 kts | 39° |
| 2026-05-04 01:58 | -3.76978 | 108.45120 | 36942 ft | 490 kts | 39° |
| 2026-05-04 01:58 | -3.71605 | 108.49321 | 36944 ft | 489 kts | 39° |
| 2026-05-04 01:59 | -3.66241 | 108.53517 | 36944 ft | 489 kts | 39° |
| 2026-05-04 01:59 | -3.60878 | 108.57710 | 36942 ft | 489 kts | 39° |
| 2026-05-04 02:00 | -3.55505 | 108.61911 | 36942 ft | 490 kts | 39° |
| 2026-05-04 02:00 | -3.50128 | 108.66114 | 36951 ft | 490 kts | 39° |
| 2026-05-04 02:01 | -3.44787 | 108.70288 | 36938 ft | 490 kts | 39° |
| 2026-05-04 02:01 | -3.39407 | 108.74492 | 36949 ft | 489 kts | 39° |
| 2026-05-04 02:02 | -3.34042 | 108.78684 | 36947 ft | 490 kts | 39° |
| 2026-05-04 02:02 | -3.28654 | 108.82894 | 36948 ft | 491 kts | 39° |
| 2026-05-04 02:03 | -3.23257 | 108.87109 | 36957 ft | 492 kts | 39° |
| 2026-05-04 02:03 | -3.17862 | 108.91323 | 36957 ft | 492 kts | 39° |
| 2026-05-04 02:04 | -3.12469 | 108.95534 | 36950 ft | 491 kts | 39° |
| 2026-05-04 02:04 | -3.07093 | 108.99732 | 36949 ft | 490 kts | 39° |
| 2026-05-04 02:05 | -3.01740 | 109.03911 | 36948 ft | 491 kts | 39° |
| 2026-05-04 02:05 | -2.96341 | 109.08125 | 36948 ft | 492 kts | 39° |
| 2026-05-04 02:06 | -2.90938 | 109.12342 | 36945 ft | 493 kts | 39° |
| 2026-05-04 02:06 | -2.85597 | 109.16662 | 36952 ft | 494 kts | 39° |
| 2026-05-04 02:07 | -2.80221 | 109.20940 | 36951 ft | 493 kts | 40° |
| 2026-05-04 02:07 | -2.74915 | 109.25276 | 36951 ft | 492 kts | 39° |
| 2026-05-04 02:08 | -2.69583 | 109.29566 | 36945 ft | 492 kts | 40° |
| 2026-05-04 02:08 | -2.64264 | 109.33881 | 36948 ft | 493 kts | 40° |
| 2026-05-04 02:09 | -2.58959 | 109.38165 | 36943 ft | 493 kts | 39° |
| 2026-05-04 02:09 | -2.53630 | 109.42478 | 36943 ft | 493 kts | 40° |
| 2026-05-04 02:10 | -2.48295 | 109.46791 | 36945 ft | 493 kts | 40° |
| 2026-05-04 02:10 | -2.42961 | 109.51105 | 36939 ft | 494 kts | 40° |
| 2026-05-04 02:11 | -2.37612 | 109.55430 | 36945 ft | 495 kts | 40° |
| 2026-05-04 02:11 | -2.32251 | 109.59763 | 36949 ft | 496 kts | 40° |
| 2026-05-04 02:12 | -2.26887 | 109.64099 | 36954 ft | 496 kts | 39° |
| 2026-05-04 02:12 | -2.21525 | 109.68433 | 36954 ft | 495 kts | 39° |
| 2026-05-04 02:13 | -2.16163 | 109.72766 | 36950 ft | 496 kts | 39° |
| 2026-05-04 02:13 | -2.10789 | 109.77109 | 36947 ft | 496 kts | 39° |
| 2026-05-04 02:14 | -2.05449 | 109.81424 | 36954 ft | 497 kts | 39° |
| 2026-05-04 02:14 | -2.00076 | 109.85765 | 36948 ft | 496 kts | 39° |
| 2026-05-04 02:15 | -1.94716 | 109.90096 | 36942 ft | 495 kts | 39° |
| 2026-05-04 02:15 | -1.89359 | 109.94423 | 36938 ft | 494 kts | 39° |
| 2026-05-04 02:16 | -1.84006 | 109.98747 | 36939 ft | 495 kts | 39° |
| 2026-05-04 02:16 | -1.78638 | 110.03083 | 36940 ft | 496 kts | 39° |
| 2026-05-04 02:17 | -1.73261 | 110.07425 | 36944 ft | 497 kts | 39° |
| 2026-05-04 02:17 | -1.67862 | 110.11759 | 36948 ft | 497 kts | 36° |
| 2026-05-04 02:18 | -1.62355 | 110.15939 | 36943 ft | 497 kts | 38° |
| 2026-05-04 02:18 | -1.56894 | 110.20105 | 36946 ft | 497 kts | 37° |
| 2026-05-04 02:19 | -1.51385 | 110.24275 | 36944 ft | 496 kts | 38° |
| 2026-05-04 02:19 | -1.45894 | 110.28461 | 36945 ft | 496 kts | 38° |
| 2026-05-04 02:20 | -1.40380 | 110.32642 | 36946 ft | 496 kts | 38° |
| 2026-05-04 02:20 | -1.34884 | 110.36823 | 36943 ft | 496 kts | 38° |
| 2026-05-04 02:21 | -1.29384 | 110.40907 | 36969 ft | 497 kts | 30° |
| 2026-05-04 02:21 | -1.23138 | 110.43898 | 36963 ft | 498 kts | 25° |
| 2026-05-04 02:22 | -1.16804 | 110.46728 | 36944 ft | 498 kts | 25° |
| 2026-05-04 02:22 | -1.11560 | 110.49106 | 36945 ft | 497 kts | 25° |
| 2026-05-04 02:23 | -1.05255 | 110.51939 | 36956 ft | 497 kts | 25° |
| 2026-05-04 02:23 | -0.98946 | 110.54786 | 36964 ft | 497 kts | 25° |
| 2026-05-04 02:24 | -0.92632 | 110.57630 | 36964 ft | 498 kts | 25° |
| 2026-05-04 02:24 | -0.86306 | 110.60481 | 36948 ft | 499 kts | 25° |
| 2026-05-04 02:25 | -0.79974 | 110.63334 | 36964 ft | 499 kts | 25° |
| 2026-05-04 02:25 | -0.73658 | 110.66179 | 36948 ft | 497 kts | 25° |
| 2026-05-04 02:26 | -0.67358 | 110.69018 | 36949 ft | 496 kts | 25° |
| 2026-05-04 02:26 | -0.61097 | 110.71838 | 36948 ft | 497 kts | 25° |
| 2026-05-04 02:27 | -0.54787 | 110.74682 | 36963 ft | 498 kts | 25° |
| 2026-05-04 02:27 | -0.48473 | 110.77526 | 36966 ft | 497 kts | 25° |
| 2026-05-04 02:28 | -0.42175 | 110.80363 | 36962 ft | 496 kts | 25° |
| 2026-05-04 02:28 | -0.35876 | 110.83201 | 36963 ft | 497 kts | 25° |
| 2026-05-04 02:29 | -0.29569 | 110.86042 | 36967 ft | 496 kts | 25° |
| 2026-05-04 02:29 | -0.23281 | 110.88874 | 36945 ft | 495 kts | 25° |
| 2026-05-04 02:30 | -0.17005 | 110.91702 | 36943 ft | 495 kts | 25° |
| 2026-05-04 02:30 | -0.10764 | 110.94513 | 36943 ft | 495 kts | 25° |
| 2026-05-04 02:31 | -0.04467 | 110.97350 | 36942 ft | 495 kts | 25° |
| 2026-05-04 02:31 | 0.01817 | 111.00181 | 36944 ft | 495 kts | 25° |
| 2026-05-04 02:32 | 0.08088 | 111.03006 | 36944 ft | 494 kts | 25° |
| 2026-05-04 02:32 | 0.14351 | 111.05827 | 36949 ft | 494 kts | 25° |
| 2026-05-04 02:33 | 0.20612 | 111.08647 | 36948 ft | 493 kts | 25° |
| 2026-05-04 02:33 | 0.26878 | 111.11470 | 36945 ft | 495 kts | 25° |
| 2026-05-04 02:34 | 0.33157 | 111.14299 | 36961 ft | 495 kts | 25° |
| 2026-05-04 02:34 | 0.39441 | 111.17129 | 36962 ft | 495 kts | 25° |
| 2026-05-04 02:35 | 0.45671 | 111.19936 | 36964 ft | 494 kts | 25° |
| 2026-05-04 02:35 | 0.51934 | 111.22757 | 36948 ft | 493 kts | 25° |
| 2026-05-04 02:36 | 0.58191 | 111.25576 | 36946 ft | 493 kts | 25° |
| 2026-05-04 02:36 | 0.64453 | 111.28397 | 36956 ft | 494 kts | 25° |
| 2026-05-04 02:37 | 0.70722 | 111.31222 | 36954 ft | 493 kts | 25° |
| 2026-05-04 02:37 | 0.76974 | 111.34039 | 36957 ft | 493 kts | 25° |
| 2026-05-04 02:38 | 0.83219 | 111.36853 | 36948 ft | 493 kts | 25° |
| 2026-05-04 02:38 | 0.89484 | 111.39675 | 36961 ft | 495 kts | 25° |
| 2026-05-04 02:39 | 0.95769 | 111.42507 | 36968 ft | 496 kts | 25° |
| 2026-05-04 02:39 | 1.02071 | 111.45347 | 36965 ft | 497 kts | 25° |
| 2026-05-04 02:40 | 1.08386 | 111.48181 | 36966 ft | 497 kts | 25° |
| 2026-05-04 02:40 | 1.14669 | 111.50994 | 36963 ft | 498 kts | 25° |
| 2026-05-04 02:41 | 1.20993 | 111.53832 | 36962 ft | 497 kts | 25° |
| 2026-05-04 02:41 | 1.27307 | 111.56660 | 36945 ft | 496 kts | 25° |
| 2026-05-04 02:42 | 1.33599 | 111.59482 | 36942 ft | 496 kts | 25° |
| 2026-05-04 02:42 | 1.39858 | 111.62288 | 36943 ft | 496 kts | 25° |
| 2026-05-04 02:43 | 1.46157 | 111.65112 | 36947 ft | 495 kts | 25° |
| 2026-05-04 02:43 | 1.52438 | 111.67928 | 36941 ft | 494 kts | 25° |
| 2026-05-04 02:44 | 1.58716 | 111.70744 | 36944 ft | 495 kts | 25° |
| 2026-05-04 02:44 | 1.65000 | 111.73562 | 36942 ft | 494 kts | 25° |
| 2026-05-04 02:45 | 1.71273 | 111.76375 | 36939 ft | 494 kts | 25° |
| 2026-05-04 02:45 | 1.77550 | 111.79190 | 36941 ft | 495 kts | 25° |
| 2026-05-04 02:46 | 1.83837 | 111.82010 | 36939 ft | 496 kts | 25° |
| 2026-05-04 02:46 | 1.90141 | 111.84838 | 36949 ft | 497 kts | 25° |
| 2026-05-04 02:47 | 1.96435 | 111.87662 | 36947 ft | 495 kts | 25° |
| 2026-05-04 02:47 | 2.02724 | 111.90483 | 36946 ft | 495 kts | 25° |
| 2026-05-04 02:48 | 2.09013 | 111.93305 | 36945 ft | 496 kts | 25° |
| 2026-05-04 02:48 | 2.15269 | 111.96112 | 36949 ft | 496 kts | 25° |
| 2026-05-04 02:49 | 2.21558 | 111.98934 | 36950 ft | 495 kts | 25° |
| 2026-05-04 02:49 | 2.27921 | 112.01527 | 36930 ft | 494 kts | 21° |
| 2026-05-04 02:50 | 2.34366 | 112.03924 | 36944 ft | 494 kts | 21° |
| 2026-05-04 02:50 | 2.40813 | 112.06306 | 36933 ft | 493 kts | 21° |
| 2026-05-04 02:51 | 2.47242 | 112.08687 | 36927 ft | 493 kts | 21° |
| 2026-05-04 02:51 | 2.53677 | 112.11070 | 36926 ft | 493 kts | 21° |
| 2026-05-04 02:52 | 2.60102 | 112.13448 | 36934 ft | 494 kts | 21° |
| 2026-05-04 02:52 | 2.66564 | 112.15842 | 36939 ft | 495 kts | 21° |
| 2026-05-04 02:53 | 2.73031 | 112.18237 | 36943 ft | 495 kts | 21° |
| 2026-05-04 02:53 | 2.79498 | 112.20632 | 36944 ft | 495 kts | 21° |
| 2026-05-04 02:54 | 2.85916 | 112.23010 | 36938 ft | 494 kts | 21° |
| 2026-05-04 02:54 | 2.92363 | 112.25398 | 36939 ft | 494 kts | 21° |
| 2026-05-04 02:55 | 3.02027 | 112.28980 | 36941 ft | 494 kts | 21° |
| 2026-05-04 02:56 | 3.08448 | 112.31439 | 36940 ft | 494 kts | 22° |
| 2026-05-04 02:56 | 3.14867 | 112.33911 | 36941 ft | 494 kts | 22° |
| 2026-05-04 02:57 | 3.21296 | 112.36370 | 36944 ft | 495 kts | 22° |
| 2026-05-04 02:57 | 3.27687 | 112.38830 | 36944 ft | 496 kts | 22° |
| 2026-05-04 02:58 | 3.34131 | 112.41299 | 36943 ft | 496 kts | 22° |
| 2026-05-04 02:58 | 3.40571 | 112.43775 | 36942 ft | 496 kts | 22° |
| 2026-05-04 02:59 | 3.47015 | 112.46248 | 36944 ft | 496 kts | 22° |
| 2026-05-04 02:59 | 3.53458 | 112.48724 | 36941 ft | 495 kts | 22° |
| 2026-05-04 03:00 | 3.59896 | 112.51196 | 36939 ft | 495 kts | 22° |
| 2026-05-04 03:00 | 3.66325 | 112.53667 | 36938 ft | 495 kts | 22° |
| 2026-05-04 03:01 | 3.72717 | 112.56123 | 36944 ft | 495 kts | 22° |
| 2026-05-04 03:01 | 3.79165 | 112.58601 | 36942 ft | 496 kts | 22° |
| 2026-05-04 03:02 | 3.85607 | 112.61077 | 36944 ft | 496 kts | 22° |
| 2026-05-04 03:02 | 3.92050 | 112.63554 | 36944 ft | 495 kts | 22° |
| 2026-05-04 03:03 | 3.98485 | 112.66029 | 36945 ft | 495 kts | 22° |
| 2026-05-04 03:03 | 4.04944 | 112.68386 | 36949 ft | 493 kts | 19° |
| 2026-05-04 03:04 | 4.11470 | 112.70601 | 36946 ft | 496 kts | 20° |
| 2026-05-04 03:04 | 4.17974 | 112.72774 | 36943 ft | 496 kts | 19° |
| 2026-05-04 03:05 | 4.24512 | 112.74969 | 36943 ft | 495 kts | 19° |
| 2026-05-04 03:05 | 4.31048 | 112.77164 | 36940 ft | 495 kts | 19° |
| 2026-05-04 03:06 | 4.37579 | 112.79354 | 36943 ft | 495 kts | 19° |
| 2026-05-04 03:06 | 4.44109 | 112.81548 | 36939 ft | 495 kts | 19° |
| 2026-05-04 03:07 | 4.50649 | 112.83743 | 36944 ft | 496 kts | 19° |
| 2026-05-04 03:07 | 4.57203 | 112.85945 | 36946 ft | 497 kts | 19° |
| 2026-05-04 03:08 | 4.63764 | 112.88144 | 36949 ft | 498 kts | 19° |
| 2026-05-04 03:08 | 4.70334 | 112.90339 | 36942 ft | 497 kts | 19° |
| 2026-05-04 03:09 | 4.76883 | 112.92533 | 36944 ft | 496 kts | 19° |
| 2026-05-04 03:09 | 4.83423 | 112.94721 | 36939 ft | 495 kts | 19° |
| 2026-05-04 03:10 | 4.89941 | 112.96942 | 36936 ft | 494 kts | 20° |
| 2026-05-04 03:10 | 4.95328 | 112.98826 | 36938 ft | 494 kts | 20° |
| 2026-05-04 03:11 | 5.02896 | 113.01424 | 36942 ft | 495 kts | 20° |
| 2026-05-04 03:11 | 5.09408 | 113.03683 | 36943 ft | 495 kts | 20° |
| 2026-05-04 03:12 | 5.14832 | 113.05552 | 36946 ft | 496 kts | 20° |
| 2026-05-04 03:12 | 5.21360 | 113.07817 | 36942 ft | 496 kts | 20° |
| 2026-05-04 03:13 | 5.27886 | 113.10081 | 36943 ft | 495 kts | 20° |
| 2026-05-04 03:13 | 5.34390 | 113.12337 | 36943 ft | 494 kts | 20° |
| 2026-05-04 03:14 | 5.40882 | 113.14591 | 36939 ft | 492 kts | 20° |
| 2026-05-04 03:14 | 5.47352 | 113.16836 | 36933 ft | 491 kts | 20° |
| 2026-05-04 03:15 | 5.53823 | 113.19083 | 36934 ft | 493 kts | 20° |
| 2026-05-04 03:15 | 5.60310 | 113.21336 | 36939 ft | 494 kts | 20° |
| 2026-05-04 03:16 | 5.66767 | 113.23579 | 36939 ft | 494 kts | 20° |
| 2026-05-04 03:16 | 5.73260 | 113.25835 | 36939 ft | 493 kts | 20° |
| 2026-05-04 03:17 | 5.79745 | 113.28088 | 36938 ft | 492 kts | 20° |
| 2026-05-04 03:17 | 5.86211 | 113.30336 | 36936 ft | 491 kts | 20° |
| 2026-05-04 03:18 | 5.92676 | 113.32584 | 36932 ft | 492 kts | 20° |
| 2026-05-04 03:18 | 5.99145 | 113.34855 | 36941 ft | 492 kts | 23° |
| 2026-05-04 03:19 | 6.05558 | 113.37290 | 36941 ft | 493 kts | 21° |
| 2026-05-04 03:19 | 6.11987 | 113.39719 | 36943 ft | 493 kts | 22° |
| 2026-05-04 03:20 | 6.18351 | 113.42145 | 36944 ft | 492 kts | 21° |
| 2026-05-04 03:20 | 6.24760 | 113.44568 | 36938 ft | 491 kts | 22° |
| 2026-05-04 03:21 | 6.31153 | 113.47002 | 36936 ft | 490 kts | 21° |
| 2026-05-04 03:21 | 6.37548 | 113.49426 | 36935 ft | 491 kts | 21° |
| 2026-05-04 03:22 | 6.43954 | 113.51861 | 36939 ft | 492 kts | 21° |
| 2026-05-04 03:22 | 6.50320 | 113.54279 | 36940 ft | 492 kts | 21° |
| 2026-05-04 03:23 | 6.56723 | 113.56713 | 36938 ft | 491 kts | 21° |
| 2026-05-04 03:23 | 6.63111 | 113.59141 | 36943 ft | 490 kts | 21° |
| 2026-05-04 03:24 | 6.69479 | 113.61562 | 36939 ft | 488 kts | 21° |
| 2026-05-04 03:24 | 6.75838 | 113.63981 | 36936 ft | 489 kts | 21° |
| 2026-05-04 03:25 | 6.82169 | 113.66390 | 36936 ft | 489 kts | 21° |
| 2026-05-04 03:25 | 6.88531 | 113.68811 | 36937 ft | 488 kts | 21° |
| 2026-05-04 03:26 | 6.94882 | 113.71229 | 36935 ft | 488 kts | 21° |
| 2026-05-04 03:26 | 7.01233 | 113.73647 | 36940 ft | 488 kts | 21° |
| 2026-05-04 03:27 | 7.07581 | 113.76065 | 36939 ft | 487 kts | 21° |
| 2026-05-04 03:27 | 7.13930 | 113.78484 | 36939 ft | 488 kts | 21° |
| 2026-05-04 03:28 | 7.20289 | 113.80908 | 36937 ft | 488 kts | 21° |
| 2026-05-04 03:28 | 7.26644 | 113.83330 | 36942 ft | 488 kts | 21° |
| 2026-05-04 03:29 | 7.33014 | 113.85760 | 36946 ft | 489 kts | 21° |
| 2026-05-04 03:29 | 7.39379 | 113.88188 | 36939 ft | 489 kts | 21° |
| 2026-05-04 03:30 | 7.45743 | 113.90616 | 36938 ft | 489 kts | 21° |
| 2026-05-04 03:30 | 7.52072 | 113.93032 | 36942 ft | 489 kts | 21° |
| 2026-05-04 03:31 | 7.58461 | 113.95447 | 36941 ft | 490 kts | 21° |
| 2026-05-04 03:31 | 7.64861 | 113.97868 | 36944 ft | 492 kts | 21° |
| 2026-05-04 03:32 | 7.71271 | 114.00296 | 36940 ft | 491 kts | 21° |
| 2026-05-04 03:32 | 7.77664 | 114.02715 | 36939 ft | 490 kts | 21° |
| 2026-05-04 03:33 | 7.84058 | 114.05138 | 36942 ft | 491 kts | 21° |
| 2026-05-04 03:33 | 7.90457 | 114.07562 | 36944 ft | 491 kts | 21° |
| 2026-05-04 03:34 | 7.96816 | 114.09972 | 36942 ft | 490 kts | 21° |
| 2026-05-04 03:34 | 8.03203 | 114.12394 | 36945 ft | 490 kts | 21° |
| 2026-05-04 03:35 | 8.09599 | 114.14819 | 36944 ft | 490 kts | 21° |
| 2026-05-04 03:35 | 8.15986 | 114.17243 | 36941 ft | 490 kts | 21° |
| 2026-05-04 03:36 | 8.22367 | 114.19665 | 36944 ft | 489 kts | 21° |
| 2026-05-04 03:36 | 8.28700 | 114.22069 | 36940 ft | 488 kts | 21° |
| 2026-05-04 03:37 | 8.35052 | 114.24481 | 36938 ft | 487 kts | 21° |
| 2026-05-04 03:37 | 8.41406 | 114.26895 | 36934 ft | 488 kts | 21° |
| 2026-05-04 03:38 | 8.47767 | 114.29313 | 36938 ft | 489 kts | 21° |
| 2026-05-04 03:38 | 8.54135 | 114.31734 | 36933 ft | 488 kts | 21° |
| 2026-05-04 03:39 | 8.60493 | 114.34152 | 36935 ft | 488 kts | 21° |
| 2026-05-04 03:39 | 8.66853 | 114.36572 | 36936 ft | 489 kts | 21° |
| 2026-05-04 03:40 | 8.73227 | 114.38997 | 36937 ft | 490 kts | 21° |
| 2026-05-04 03:40 | 8.79565 | 114.41410 | 36936 ft | 489 kts | 21° |
| 2026-05-04 03:41 | 8.85935 | 114.43836 | 36936 ft | 489 kts | 21° |
| 2026-05-04 03:41 | 8.92307 | 114.46264 | 36938 ft | 489 kts | 21° |
| 2026-05-04 03:42 | 8.98681 | 114.48694 | 36936 ft | 489 kts | 21° |
| 2026-05-04 03:42 | 9.05050 | 114.51122 | 36934 ft | 488 kts | 21° |
| 2026-05-04 03:43 | 9.11404 | 114.53546 | 36935 ft | 488 kts | 21° |
| 2026-05-04 03:43 | 9.17765 | 114.55973 | 36935 ft | 489 kts | 21° |
| 2026-05-04 03:44 | 9.24128 | 114.58402 | 36936 ft | 488 kts | 21° |
| 2026-05-04 03:44 | 9.30443 | 114.60814 | 36935 ft | 488 kts | 21° |
| 2026-05-04 03:45 | 9.36802 | 114.63243 | 36935 ft | 488 kts | 21° |
| 2026-05-04 03:45 | 9.43160 | 114.65673 | 36936 ft | 488 kts | 21° |
| 2026-05-04 03:46 | 9.49517 | 114.68104 | 36938 ft | 488 kts | 21° |
| 2026-05-04 03:46 | 9.55868 | 114.70533 | 36937 ft | 488 kts | 21° |
| 2026-05-04 03:47 | 9.62188 | 114.72951 | 36937 ft | 489 kts | 21° |
| 2026-05-04 03:47 | 9.67480 | 114.74976 | 36934 ft | 489 kts | 21° |
| 2026-05-04 03:48 | 9.74889 | 114.77814 | 36936 ft | 490 kts | 21° |
| 2026-05-04 03:48 | 9.81117 | 114.80567 | 36971 ft | 488 kts | 34° |
| 2026-05-04 03:48 | 9.83816 | 114.82649 | 36965 ft | 488 kts | 45° |
| 2026-05-04 03:49 | 9.86098 | 114.85192 | 36961 ft | 488 kts | 52° |
| 2026-05-04 03:49 | 9.90312 | 114.90612 | 36950 ft | 488 kts | 52° |
| 2026-05-04 03:50 | 9.94508 | 114.96035 | 36944 ft | 489 kts | 52° |
| 2026-05-04 03:50 | 9.98684 | 115.01412 | 36943 ft | 488 kts | 52° |
| 2026-05-04 03:51 | 10.02889 | 115.06845 | 36947 ft | 489 kts | 52° |
| 2026-05-04 03:51 | 10.07096 | 115.12274 | 36942 ft | 490 kts | 52° |
| 2026-05-04 03:52 | 10.11309 | 115.17718 | 36942 ft | 490 kts | 52° |
| 2026-05-04 03:52 | 10.15526 | 115.23167 | 36944 ft | 491 kts | 52° |
| 2026-05-04 03:53 | 10.19750 | 115.28629 | 36945 ft | 491 kts | 52° |
| 2026-05-04 03:53 | 10.23967 | 115.34084 | 36943 ft | 491 kts | 52° |
| 2026-05-04 03:54 | 10.28156 | 115.39506 | 36942 ft | 491 kts | 52° |
| 2026-05-04 03:54 | 10.32379 | 115.44974 | 36944 ft | 492 kts | 52° |
| 2026-05-04 03:55 | 10.36605 | 115.50448 | 36941 ft | 493 kts | 52° |
| 2026-05-04 03:55 | 10.39432 | 115.54114 | 36944 ft | 493 kts | 52° |
| 2026-05-04 03:56 | 10.45069 | 115.61422 | 36944 ft | 494 kts | 52° |
| 2026-05-04 03:56 | 10.49309 | 115.66923 | 36944 ft | 495 kts | 52° |
| 2026-05-04 03:57 | 10.53555 | 115.72434 | 36947 ft | 495 kts | 52° |
| 2026-05-04 03:57 | 10.57802 | 115.77950 | 36943 ft | 496 kts | 52° |
| 2026-05-04 03:58 | 10.64156 | 115.86207 | 36939 ft | 497 kts | 52° |
| 2026-05-04 03:58 | 10.68420 | 115.91752 | 36941 ft | 498 kts | 53° |
| 2026-05-04 03:59 | 10.72690 | 115.97309 | 36941 ft | 499 kts | 53° |
| 2026-05-04 03:59 | 10.76964 | 116.02870 | 36943 ft | 499 kts | 53° |
| 2026-05-04 04:00 | 10.80524 | 116.07507 | 36944 ft | 500 kts | 53° |
| 2026-05-04 04:00 | 10.85504 | 116.13997 | 36945 ft | 501 kts | 53° |
| 2026-05-04 04:01 | 10.89796 | 116.19591 | 36948 ft | 502 kts | 53° |
| 2026-05-04 04:01 | 10.93398 | 116.24292 | 36943 ft | 503 kts | 53° |
| 2026-05-04 04:02 | 10.97677 | 116.29874 | 36943 ft | 504 kts | 53° |
| 2026-05-04 04:02 | 11.01990 | 116.35506 | 36943 ft | 505 kts | 53° |
| 2026-05-04 04:03 | 11.06306 | 116.41144 | 36940 ft | 505 kts | 53° |
| 2026-05-04 04:03 | 11.10625 | 116.46789 | 36941 ft | 505 kts | 53° |
| 2026-05-04 04:04 | 11.15634 | 116.51772 | 36965 ft | 508 kts | 32° |
| 2026-05-04 04:04 | 11.18754 | 116.53462 | 36970 ft | 509 kts | 21° |
| 2026-05-04 04:04 | 11.22141 | 116.54512 | 36967 ft | 509 kts | 9° |
| 2026-05-04 04:05 | 11.29166 | 116.55465 | 36935 ft | 509 kts | 6° |
| 2026-05-04 04:05 | 11.36193 | 116.56309 | 36949 ft | 507 kts | 7° |
| 2026-05-04 04:06 | 11.43195 | 116.57188 | 36932 ft | 506 kts | 7° |
| 2026-05-04 04:06 | 11.50187 | 116.58045 | 36939 ft | 505 kts | 7° |
| 2026-05-04 04:07 | 11.57162 | 116.58912 | 36942 ft | 504 kts | 7° |
| 2026-05-04 04:07 | 11.64079 | 116.59766 | 36941 ft | 503 kts | 7° |
| 2026-05-04 04:08 | 11.71036 | 116.60628 | 36936 ft | 503 kts | 7° |
| 2026-05-04 04:08 | 11.78000 | 116.61491 | 36934 ft | 503 kts | 7° |
| 2026-05-04 04:09 | 11.84961 | 116.62354 | 36937 ft | 504 kts | 7° |
| 2026-05-04 04:09 | 11.91877 | 116.63212 | 36942 ft | 504 kts | 7° |
| 2026-05-04 04:10 | 11.98835 | 116.64076 | 36946 ft | 504 kts | 7° |
| 2026-05-04 04:10 | 12.05801 | 116.64941 | 36941 ft | 504 kts | 7° |
| 2026-05-04 04:11 | 12.12773 | 116.65807 | 36946 ft | 505 kts | 7° |
| 2026-05-04 04:11 | 12.19770 | 116.66676 | 36937 ft | 506 kts | 7° |
| 2026-05-04 04:12 | 12.26771 | 116.67547 | 36939 ft | 507 kts | 7° |
| 2026-05-04 04:12 | 12.33784 | 116.68420 | 36942 ft | 508 kts | 7° |
| 2026-05-04 04:13 | 12.40804 | 116.69294 | 36943 ft | 508 kts | 7° |
| 2026-05-04 04:13 | 12.47835 | 116.70170 | 36939 ft | 508 kts | 6° |
| 2026-05-04 04:14 | 12.54853 | 116.71044 | 36944 ft | 508 kts | 6° |
| 2026-05-04 04:14 | 12.61872 | 116.71920 | 36954 ft | 508 kts | 6° |
| 2026-05-04 04:15 | 12.68845 | 116.72790 | 36944 ft | 508 kts | 6° |
| 2026-05-04 04:15 | 12.75864 | 116.73666 | 36945 ft | 508 kts | 6° |
| 2026-05-04 04:16 | 12.82872 | 116.74541 | 36952 ft | 507 kts | 6° |
| 2026-05-04 04:16 | 12.89881 | 116.75417 | 36946 ft | 507 kts | 6° |
| 2026-05-04 04:17 | 12.96890 | 116.76294 | 36950 ft | 507 kts | 6° |
| 2026-05-04 04:17 | 13.03901 | 116.77171 | 36951 ft | 507 kts | 6° |
| 2026-05-04 04:18 | 13.10908 | 116.78049 | 36952 ft | 506 kts | 6° |
| 2026-05-04 04:18 | 13.17897 | 116.78924 | 36946 ft | 506 kts | 6° |
| 2026-05-04 04:19 | 13.24836 | 116.79793 | 36946 ft | 505 kts | 6° |
| 2026-05-04 04:19 | 13.31821 | 116.80670 | 36947 ft | 505 kts | 6° |
| 2026-05-04 04:20 | 13.38809 | 116.81546 | 36945 ft | 504 kts | 6° |
| 2026-05-04 04:20 | 13.45733 | 116.82416 | 36948 ft | 498 kts | 6° |
| 2026-05-04 04:21 | 13.52574 | 116.83275 | 36946 ft | 498 kts | 5° |
| 2026-05-04 04:21 | 13.59461 | 116.84141 | 36953 ft | 499 kts | 5° |
| 2026-05-04 04:22 | 13.66354 | 116.85007 | 36958 ft | 498 kts | 5° |
| 2026-05-04 04:22 | 13.73239 | 116.85874 | 36955 ft | 499 kts | 5° |
| 2026-05-04 04:23 | 13.80133 | 116.86743 | 36951 ft | 499 kts | 5° |
| 2026-05-04 04:23 | 13.87027 | 116.87610 | 36946 ft | 499 kts | 5° |
| 2026-05-04 04:24 | 13.93929 | 116.88481 | 36951 ft | 499 kts | 5° |
| 2026-05-04 04:24 | 14.00775 | 116.89344 | 36948 ft | 498 kts | 5° |
| 2026-05-04 04:25 | 14.07662 | 116.90214 | 36954 ft | 498 kts | 5° |
| 2026-05-04 04:25 | 14.14553 | 116.91084 | 36952 ft | 499 kts | 5° |
| 2026-05-04 04:26 | 14.21451 | 116.91956 | 36951 ft | 499 kts | 5° |
| 2026-05-04 04:26 | 14.28352 | 116.92829 | 36952 ft | 500 kts | 5° |
| 2026-05-04 04:27 | 14.35259 | 116.93703 | 36951 ft | 501 kts | 5° |
| 2026-05-04 04:27 | 14.42178 | 116.94579 | 36953 ft | 501 kts | 5° |
| 2026-05-04 04:28 | 14.49060 | 116.95451 | 36954 ft | 501 kts | 5° |
| 2026-05-04 04:28 | 14.55973 | 116.96328 | 36959 ft | 501 kts | 5° |
| 2026-05-04 04:29 | 14.62903 | 116.97207 | 36953 ft | 501 kts | 5° |
| 2026-05-04 04:29 | 14.69822 | 116.98085 | 36950 ft | 500 kts | 5° |
| 2026-05-04 04:30 | 14.76735 | 116.98963 | 36957 ft | 500 kts | 5° |
| 2026-05-04 04:30 | 14.83604 | 116.99836 | 36954 ft | 501 kts | 5° |
| 2026-05-04 04:31 | 14.90517 | 117.00716 | 36956 ft | 500 kts | 5° |
| 2026-05-04 04:31 | 14.97413 | 117.01593 | 36955 ft | 499 kts | 5° |
| 2026-05-04 04:32 | 15.04295 | 117.02470 | 36949 ft | 498 kts | 5° |
| 2026-05-04 04:32 | 15.11181 | 117.03347 | 36952 ft | 498 kts | 5° |
| 2026-05-04 04:33 | 15.18065 | 117.04225 | 36961 ft | 499 kts | 5° |
| 2026-05-04 04:33 | 15.24960 | 117.05105 | 36952 ft | 499 kts | 5° |
| 2026-05-04 04:34 | 15.31813 | 117.05980 | 36956 ft | 499 kts | 5° |
| 2026-05-04 04:34 | 15.38699 | 117.06860 | 36958 ft | 498 kts | 5° |
| 2026-05-04 04:35 | 15.45569 | 117.07739 | 36953 ft | 497 kts | 5° |
| 2026-05-04 04:35 | 15.52416 | 117.08615 | 36950 ft | 495 kts | 5° |
| 2026-05-04 04:36 | 15.59263 | 117.09491 | 36955 ft | 496 kts | 5° |
| 2026-05-04 04:36 | 15.66126 | 117.10370 | 36958 ft | 498 kts | 5° |
| 2026-05-04 04:37 | 15.79885 | 117.12135 | 36955 ft | 497 kts | 5° |
| 2026-05-04 04:38 | 15.86746 | 117.13016 | 36958 ft | 496 kts | 5° |
| 2026-05-04 04:38 | 15.93597 | 117.13896 | 36956 ft | 495 kts | 5° |
| 2026-05-04 04:39 | 16.00390 | 117.14769 | 36955 ft | 496 kts | 5° |
| 2026-05-04 04:39 | 16.07248 | 117.15651 | 36957 ft | 497 kts | 5° |
| 2026-05-04 04:40 | 16.14112 | 117.16535 | 36957 ft | 497 kts | 5° |
| 2026-05-04 04:40 | 16.20974 | 117.17419 | 36959 ft | 495 kts | 5° |
| 2026-05-04 04:41 | 16.27813 | 117.18301 | 36963 ft | 495 kts | 5° |
| 2026-05-04 04:41 | 16.34653 | 117.19183 | 36964 ft | 495 kts | 5° |
| 2026-05-04 04:42 | 16.41476 | 117.20187 | 36977 ft | 497 kts | 13° |
| 2026-05-04 04:42 | 16.47792 | 117.23162 | 36982 ft | 505 kts | 34° |
| 2026-05-04 04:43 | 16.50478 | 117.25534 | 36981 ft | 508 kts | 45° |
| 2026-05-04 04:43 | 16.52890 | 117.28221 | 36963 ft | 508 kts | 45° |
| 2026-05-04 04:43 | 16.57643 | 117.33604 | 36962 ft | 508 kts | 45° |
| 2026-05-04 04:44 | 16.62436 | 117.39029 | 36960 ft | 508 kts | 45° |
| 2026-05-04 04:44 | 16.67224 | 117.44450 | 36960 ft | 507 kts | 45° |
| 2026-05-04 04:45 | 16.72002 | 117.49870 | 36962 ft | 507 kts | 45° |
| 2026-05-04 04:47 | 16.88740 | 117.68876 | 36959 ft | 510 kts | 45° |
| 2026-05-04 04:47 | 16.93534 | 117.74330 | 36959 ft | 509 kts | 45° |
| 2026-05-04 04:48 | 16.98311 | 117.79770 | 36956 ft | 507 kts | 45° |
| 2026-05-04 04:49 | 17.10241 | 117.93372 | 36958 ft | 508 kts | 45° |
| 2026-05-04 04:49 | 17.15013 | 117.98821 | 36958 ft | 508 kts | 45° |
| 2026-05-04 04:50 | 17.19752 | 118.04238 | 36958 ft | 507 kts | 45° |
| 2026-05-04 04:50 | 17.23722 | 118.08777 | 36957 ft | 508 kts | 45° |
| 2026-05-04 04:51 | 17.28503 | 118.14249 | 36958 ft | 510 kts | 45° |
| 2026-05-04 04:51 | 17.33282 | 118.19723 | 36958 ft | 509 kts | 45° |
| 2026-05-04 04:52 | 17.38059 | 118.25200 | 36957 ft | 509 kts | 45° |
| 2026-05-04 04:52 | 17.42812 | 118.30654 | 36956 ft | 509 kts | 45° |
| 2026-05-04 04:53 | 17.47580 | 118.36129 | 36953 ft | 509 kts | 45° |
| 2026-05-04 04:53 | 17.52353 | 118.41614 | 36956 ft | 509 kts | 45° |
| 2026-05-04 04:54 | 17.57120 | 118.47098 | 36954 ft | 509 kts | 45° |
| 2026-05-04 04:54 | 17.61891 | 118.52590 | 36953 ft | 510 kts | 46° |
| 2026-05-04 04:55 | 17.66673 | 118.58100 | 36950 ft | 511 kts | 45° |
| 2026-05-04 04:55 | 17.71463 | 118.63624 | 36950 ft | 512 kts | 46° |